Terminal Aerodrome Forecast
Issued by NWS

Home | Current Version | Previous Version | Graphics & Text | Print | Product List | Glossary Off
Versions: 1 2 3 4 5 6 7 8 9 10 11 12 13

000
FTUS43 KDDC 260520
TAFGCK
TAF
KGCK 260520Z 2606/2706 01006KT P6SM SKC
     FM260900 34006KT P6SM SKC
     FM261700 24005KT P6SM SKC
     FM262300 18007KT P6SM SKC=

USA.gov is the U.S. government's official web portal to all federal, state and local government web resources and services.